Terminal Aerodrome Forecast
Issued by NWS Boston, MA

Home | Current Version | Previous Version | Text Only | Print | Product List | Glossary On
Versions: 1 2 3 4 5 6 7 8 9 10 11 12 13 14 15 16 17 18 19 20 21 22 23 24 25 26 27 28 29 30 31 32 33 34 35
000
FTUS41 KBOX 302331
TAFORH
TAF
KORH 302331Z 3100/3124 19009KT P6SM SCT030
     FM310400 21010KT P6SM BKN010
     FM311000 22011KT 6SM BR BKN035
     FM311200 22011KT 3SM BR BKN025
     FM311400 22011KT P6SM BKN030
     FM312000 22011KT P6SM BKN035
     FM312300 22010KT 6SM -SHRA VCTS OVC040CB=

USA.gov is the U.S. government's official web portal to all federal, state and local government web resources and services.